Time;durP1;ratioP1;P1;durP2;ratioP2;P2;SDS_P1;SDS_P2;PMS_P1;PMS_P2;Temp;Humidity;BMP_temperature;BMP_pressure;BME280_temperature;BME280_humidity;BME280_pressure;Samples;Min_cycle;Max_cycle;Signal;HPM_P1;HPM_P2
2022/10/08 00:00:54;;;;;;;18.52;12.13;;;15.00;83.20;;;;;;5037176;28;20054;-78
2022/10/08 00:03:23;;;;;;;16.83;11.18;;;15.00;83.20;;;;;;5036910;28;20124;-78
2022/10/08 00:05:56;;;;;;;19.83;12.23;;;15.00;83.00;;;;;;5036879;28;20092;-78
2022/10/08 00:08:22;;;;;;;16.10;10.55;;;15.00;83.10;;;;;;5037001;28;20029;-78
2022/10/08 00:10:53;;;;;;;15.80;11.50;;;14.90;83.10;;;;;;5036840;28;20036;-78
2022/10/08 00:13:19;;;;;;;14.40;10.55;;;15.00;83.20;;;;;;5036846;28;20021;-78
2022/10/08 00:15:45;;;;;;;22.05;11.02;;;15.00;83.20;;;;;;5037043;28;20028;-78
2022/10/08 00:18:10;;;;;;;15.70;9.52;;;15.00;83.30;;;;;;5036665;28;20033;-79
2022/10/08 00:20:36;;;;;;;15.15;9.13;;;14.90;83.30;;;;;;5036817;28;20025;-78
2022/10/08 00:23:01;;;;;;;17.73;9.00;;;14.90;83.30;;;;;;5054469;28;20025;-78
2022/10/08 00:25:27;;;;;;;16.25;8.93;;;14.90;83.20;;;;;;5036908;28;20025;-79
2022/10/08 00:27:53;;;;;;;15.70;9.07;;;14.90;83.30;;;;;;5036319;28;20033;-79
2022/10/08 00:30:19;;;;;;;13.38;9.70;;;14.90;83.30;;;;;;5036428;28;20017;-78
2022/10/08 00:32:45;;;;;;;17.70;9.20;;;14.90;83.40;;;;;;5036654;28;20024;-79
2022/10/08 00:35:10;;;;;;;14.57;8.85;;;14.90;83.40;;;;;;5036382;28;20021;-78
2022/10/08 00:37:36;;;;;;;15.80;8.65;;;14.90;83.50;;;;;;5035771;28;20106;-78
2022/10/08 00:40:03;;;;;;;12.57;8.63;;;14.90;83.40;;;;;;5035685;28;20456;-78
2022/10/08 00:42:29;;;;;;;16.52;8.07;;;14.90;83.40;;;;;;5035793;28;20366;-78
2022/10/08 00:44:57;;;;;;;12.95;7.63;;;14.90;83.20;;;;;;5036344;28;20112;-78
2022/10/08 00:47:31;;;;;;;12.85;7.55;;;14.90;83.20;;;;;;5036058;28;20045;-78
2022/10/08 00:50:09;;;;;;;12.88;7.15;;;14.90;84.00;;;;;;5036077;28;20020;-78
2022/10/08 00:52:40;;;;;;;12.77;6.93;;;15.00;82.80;;;;;;5035953;28;20075;-78
2022/10/08 00:55:07;;;;;;;17.40;6.70;;;14.90;83.60;;;;;;5036116;28;20025;-78
2022/10/08 00:57:34;;;;;;;14.00;6.63;;;14.90;82.80;;;;;;5036039;28;20033;-78
2022/10/08 01:00:07;;;;;;;11.27;6.15;;;14.90;82.80;;;;;;5035984;28;20033;-78
2022/10/08 01:02:33;;;;;;;10.40;6.43;;;14.90;83.10;;;;;;5036054;28;20029;-78
2022/10/08 01:04:59;;;;;;;14.57;7.97;;;14.90;83.10;;;;;;5036007;28;20124;-78
2022/10/08 01:07:44;;;;;;;13.07;9.45;;;14.80;82.90;;;;;;5035405;28;20037;-78
2022/10/08 01:10:29;;;;;;;22.95;10.18;;;14.80;83.10;;;;;;5036023;28;20032;-78
2022/10/08 01:13:21;;;;;;;15.60;10.10;;;14.80;83.20;;;;;;5035663;28;20028;-78
2022/10/08 01:15:52;;;;;;;14.93;9.60;;;14.80;83.40;;;;;;5035534;28;20036;-78
2022/10/08 01:18:55;;;;;;;17.55;10.40;;;14.70;83.80;;;;;;5035133;28;20416;-78
2022/10/08 01:21:50;;;;;;;14.25;8.88;;;14.70;84.00;;;;;;5035644;28;20024;-78
2022/10/08 01:27:42;;;;;;;16.48;8.80;;;14.60;84.10;;;;;;5053206;28;20147;-80
2022/10/08 01:30:15;;;;;;;14.98;8.32;;;14.70;84.20;;;;;;5035337;28;20032;-80
2022/10/08 01:33:11;;;;;;;18.05;10.18;;;14.60;84.10;;;;;;5034206;28;20017;-80
2022/10/08 01:35:39;;;;;;;19.52;9.00;;;14.60;84.10;;;;;;5034518;28;20162;-80
2022/10/08 01:38:07;;;;;;;17.85;9.68;;;14.60;84.20;;;;;;5034762;28;20037;-80
2022/10/08 01:40:39;;;;;;;13.63;9.52;;;14.60;84.10;;;;;;5034782;28;20021;-80
2022/10/08 01:43:08;;;;;;;14.25;8.70;;;14.50;84.30;;;;;;5034553;28;20178;-80
2022/10/08 01:45:42;;;;;;;19.90;10.98;;;14.40;84.20;;;;;;5034895;28;20028;-79
2022/10/08 01:48:13;;;;;;;16.30;10.05;;;14.40;84.40;;;;;;5035026;28;20056;-79
2022/10/08 01:50:47;;;;;;;19.15;10.75;;;14.40;84.50;;;;;;5053372;28;20031;-79
2022/10/08 01:53:16;;;;;;;25.50;12.20;;;14.40;84.50;;;;;;5034746;28;20603;-79
2022/10/08 01:55:46;;;;;;;22.88;12.38;;;14.40;84.60;;;;;;5034754;28;20730;-78
2022/10/08 01:58:20;;;;;;;25.52;13.98;;;14.30;84.60;;;;;;5034616;28;20444;-78
2022/10/08 02:00:48;;;;;;;30.27;15.48;;;14.30;84.80;;;;;;5018226;28;20025;-78
2022/10/08 02:03:14;;;;;;;29.60;14.90;;;14.30;84.70;;;;;;5018680;28;20036;-78
2022/10/08 02:05:47;;;;;;;36.88;15.02;;;14.20;84.70;;;;;;5035002;28;20427;-78
2022/10/08 02:08:13;;;;;;;36.35;15.10;;;14.20;84.90;;;;;;5035245;28;20025;-78
2022/10/08 02:10:39;;;;;;;31.15;14.48;;;14.10;85.00;;;;;;5035263;28;20218;-78
2022/10/08 02:13:05;;;;;;;28.67;14.00;;;14.20;85.20;;;;;;5035304;28;20057;-78
2022/10/08 02:16:08;;;;;;;24.73;11.85;;;14.10;85.60;;;;;;5034740;28;20438;-78
2022/10/08 02:18:43;;;;;;;31.60;12.68;;;14.10;85.60;;;;;;5018560;28;20045;-78
2022/10/08 02:21:18;;;;;;;33.35;14.77;;;14.10;85.70;;;;;;5034664;28;20032;-78
2022/10/08 02:24:11;;;;;;;38.72;15.57;;;14.10;85.70;;;;;;5034790;28;20040;-78
2022/10/08 02:26:46;;;;;;;30.35;13.77;;;14.10;85.60;;;;;;5035043;28;20029;-77
2022/10/08 02:29:23;;;;;;;30.73;13.75;;;14.10;85.50;;;;;;5034975;28;20496;-78
2022/10/08 02:31:53;;;;;;;29.27;12.82;;;14.10;85.40;;;;;;5034711;28;20025;-78
2022/10/08 02:34:28;;;;;;;22.02;10.63;;;14.10;85.40;;;;;;5034527;28;20484;-78
2022/10/08 02:37:10;;;;;;;21.02;11.07;;;14.10;85.40;;;;;;5034827;28;20040;-78
2022/10/08 02:39:41;;;;;;;18.55;10.65;;;14.10;85.30;;;;;;5034877;28;20037;-78
2022/10/08 02:42:11;;;;;;;20.40;10.95;;;14.20;85.10;;;;;;5034636;28;20029;-79
2022/10/08 02:44:52;;;;;;;17.83;10.10;;;14.20;85.00;;;;;;5034936;28;20025;-78
2022/10/08 02:47:22;;;;;;;14.10;7.65;;;14.20;84.80;;;;;;5018297;28;20231;-77
2022/10/08 02:49:57;;;;;;;14.80;7.90;;;14.20;84.50;;;;;;5034767;28;20029;-78
2022/10/08 02:52:26;;;;;;;;;;;14.20;84.40;;;;;;5035088;28;20040;-78
2022/10/08 02:54:54;;;;;;;13.23;7.25;;;14.10;84.40;;;;;;5035872;28;19940;-78
2022/10/08 02:57:32;;;;;;;11.85;6.80;;;14.10;84.70;;;;;;5038239;28;20091;-78
2022/10/08 02:59:58;;;;;;;14.85;6.75;;;14.00;84.80;;;;;;5038124;28;20025;-79
2022/10/08 03:02:36;;;;;;;11.57;6.85;;;14.00;85.80;;;;;;5038173;28;20425;-78
2022/10/08 03:05:07;;;;;;;12.95;5.90;;;14.00;84.80;;;;;;5038109;28;20393;-79
2022/10/08 03:07:33;;;;;;;18.58;6.00;;;14.00;84.80;;;;;;5037975;28;20396;-78
2022/10/08 03:10:04;;;;;;;11.75;5.43;;;14.00;84.80;;;;;;5037809;28;20477;-79
2022/10/08 03:12:31;;;;;;;12.88;5.60;;;14.00;84.80;;;;;;5037856;28;20059;-79
2022/10/08 03:14:56;;;;;;;12.30;4.88;;;14.00;84.80;;;;;;5038016;28;20033;-79
2022/10/08 03:17:26;;;;;;;12.88;6.20;;;14.00;84.70;;;;;;5038095;28;20040;-78
2022/10/08 03:19:53;;;;;;;7.55;4.35;;;14.10;84.60;;;;;;5038067;28;20119;-78
2022/10/08 03:22:19;;;;;;;9.57;4.63;;;14.00;84.70;;;;;;5037919;28;20606;-78
2022/10/08 03:24:44;;;;;;;13.15;5.57;;;14.10;84.60;;;;;;5037766;28;20021;-77
2022/10/08 03:27:10;;;;;;;9.75;5.10;;;14.10;84.50;;;;;;5037855;28;20470;-77
2022/10/08 03:29:36;;;;;;;14.88;4.72;;;14.10;84.40;;;;;;5037414;28;20017;-77
2022/10/08 03:32:01;;;;;;;14.65;5.72;;;14.20;84.20;;;;;;5037017;28;20044;-78
2022/10/08 03:34:27;;;;;;;10.25;4.85;;;14.10;84.20;;;;;;5037329;28;20056;-78
2022/10/08 03:36:52;;;;;;;12.90;5.57;;;14.10;84.20;;;;;;5037683;28;20031;-79
2022/10/08 03:39:18;;;;;;;13.40;5.63;;;14.20;84.30;;;;;;5037415;28;20032;-78
2022/10/08 03:41:44;;;;;;;24.42;9.63;;;14.20;84.10;;;;;;5037571;28;20057;-78
2022/10/08 03:44:11;;;;;;;52.90;27.25;;;14.10;84.10;;;;;;5037313;28;20527;-77
2022/10/08 03:46:37;;;;;;;51.03;23.95;;;14.10;84.00;;;;;;5036255;28;20543;-78
2022/10/08 03:49:02;;;;;;;59.90;25.23;;;14.10;84.30;;;;;;5036852;28;20128;-79
2022/10/08 03:51:28;;;;;;;54.15;26.00;;;14.10;84.40;;;;;;5037210;28;20021;-79
2022/10/08 03:53:53;;;;;;;44.63;23.10;;;14.00;84.40;;;;;;5037163;28;20017;-78
2022/10/08 03:56:24;;;;;;;25.70;12.68;;;14.10;84.50;;;;;;5020660;28;20164;-78
2022/10/08 03:58:55;;;;;;;34.35;19.00;;;14.00;84.40;;;;;;5036963;28;20025;-77
2022/10/08 04:01:22;;;;;;;39.00;22.30;;;14.10;84.60;;;;;;5036036;28;20025;-79
2022/10/08 04:03:47;;;;;;;41.08;22.75;;;14.10;84.40;;;;;;5035924;28;20075;-78
2022/10/08 04:06:14;;;;;;;40.65;22.02;;;14.10;84.30;;;;;;5035147;28;20608;-78
2022/10/08 04:08:40;;;;;;;28.90;17.45;;;14.10;84.40;;;;;;5035880;28;20495;-78
2022/10/08 04:11:08;;;;;;;29.38;16.67;;;14.20;84.20;;;;;;5035693;28;20033;-78
2022/10/08 04:13:35;;;;;;;33.42;15.75;;;14.10;84.10;;;;;;5035510;28;20017;-79
2022/10/08 04:16:11;;;;;;;20.23;12.27;;;14.10;84.20;;;;;;5035499;28;20025;-79
2022/10/08 04:18:37;;;;;;;19.10;11.48;;;14.20;84.10;;;;;;5035526;28;20044;-79
2022/10/08 04:21:05;;;;;;;20.02;10.50;;;14.20;84.00;;;;;;5036740;28;20114;-79
2022/10/08 04:23:33;;;;;;;16.38;8.30;;;14.10;84.00;;;;;;5036487;28;20032;-79
2022/10/08 04:25:59;;;;;;;17.63;6.75;;;14.20;83.90;;;;;;5036466;28;20071;-79
2022/10/08 04:28:25;;;;;;;14.18;5.93;;;14.20;83.80;;;;;;5036644;28;20048;-78
2022/10/08 04:30:55;;;;;;;18.25;4.80;;;14.10;83.90;;;;;;5036243;28;20037;-79
2022/10/08 04:33:20;;;;;;;10.20;4.97;;;14.10;84.00;;;;;;5036444;28;20025;-79
2022/10/08 04:35:46;;;;;;;9.40;4.47;;;14.20;84.00;;;;;;5036476;28;20017;-80
2022/10/08 04:38:11;;;;;;;7.50;4.15;;;14.10;83.90;;;;;;5036450;28;20432;-80
2022/10/08 04:40:37;;;;;;;13.90;5.18;;;14.10;84.10;;;;;;5035652;28;20023;-79
2022/10/08 04:43:03;;;;;;;9.43;4.30;;;14.10;84.20;;;;;;5036171;28;20090;-79
2022/10/08 04:45:28;;;;;;;8.38;4.30;;;14.10;84.30;;;;;;5036314;28;20047;-79
2022/10/08 04:47:54;;;;;;;10.38;4.57;;;14.10;84.10;;;;;;5035748;28;20044;-78
2022/10/08 04:50:19;;;;;;;13.88;4.43;;;14.00;83.90;;;;;;5035468;28;20512;-78
2022/10/08 04:52:45;;;;;;;10.65;4.63;;;14.10;84.00;;;;;;5036215;28;20024;-78
2022/10/08 04:55:10;;;;;;;11.63;4.30;;;14.00;83.90;;;;;;5035961;28;20029;-77
2022/10/08 04:57:36;;;;;;;9.60;4.18;;;14.00;83.90;;;;;;5035756;28;20040;-78
2022/10/08 05:00:04;;;;;;;9.60;4.90;;;14.00;83.90;;;;;;5035935;28;20112;-79
2022/10/08 05:02:30;;;;;;;14.50;4.93;;;14.00;84.00;;;;;;5035784;28;20112;-78
2022/10/08 05:04:55;;;;;;;6.38;4.05;;;13.90;84.00;;;;;;5035494;28;20115;-77
2022/10/08 05:07:21;;;;;;;12.07;4.68;;;13.90;84.10;;;;;;5035990;28;20111;-78
2022/10/08 05:09:47;;;;;;;12.55;4.95;;;13.90;84.30;;;;;;5035572;28;20017;-78
2022/10/08 05:12:12;;;;;;;11.10;4.80;;;13.90;84.60;;;;;;5035557;28;20041;-77
2022/10/08 05:14:38;;;;;;;15.57;5.10;;;13.80;84.80;;;;;;5035525;28;20021;-78
2022/10/08 05:17:03;;;;;;;11.77;4.45;;;13.80;84.80;;;;;;5034958;28;20520;-78
2022/10/08 05:19:29;;;;;;;9.13;4.50;;;13.70;85.00;;;;;;5035575;28;20086;-78
2022/10/08 05:21:54;;;;;;;8.70;4.10;;;13.70;85.10;;;;;;5035540;28;20029;-77
2022/10/08 05:24:20;;;;;;;8.80;4.65;;;13.70;85.10;;;;;;5035585;28;20027;-77
2022/10/08 05:26:46;;;;;;;8.73;4.82;;;13.80;85.10;;;;;;5035074;28;20119;-77
2022/10/08 05:29:11;;;;;;;8.32;4.85;;;13.80;84.90;;;;;;5035345;28;20427;-77
2022/10/08 05:31:37;;;;;;;10.00;4.43;;;13.80;84.90;;;;;;5052276;28;20046;-79
2022/10/08 05:34:03;;;;;;;8.73;4.90;;;13.80;84.90;;;;;;5034752;28;20485;-78
2022/10/08 05:36:31;;;;;;;13.30;4.65;;;13.80;84.90;;;;;;5035197;28;20021;-82
2022/10/08 05:39:02;;;;;;;10.27;4.57;;;13.80;84.80;;;;;;5035146;28;20059;-78
2022/10/08 05:41:30;;;;;;;11.05;4.85;;;13.80;84.80;;;;;;5034826;28;20508;-76
2022/10/08 05:44:00;;;;;;;12.80;5.63;;;13.70;84.80;;;;;;5034607;28;20040;-78
2022/10/08 05:46:28;;;;;;;12.68;5.22;;;13.80;84.80;;;;;;5034758;28;20075;-77
2022/10/08 05:48:56;;;;;;;12.50;4.80;;;13.80;84.60;;;;;;5035229;28;20483;-76
2022/10/08 05:51:22;;;;;;;13.18;4.80;;;13.80;84.60;;;;;;5035356;28;20053;-78
2022/10/08 05:53:52;;;;;;;13.65;4.80;;;13.80;84.60;;;;;;5034941;28;20473;-78
2022/10/08 05:56:21;;;;;;;10.02;4.13;;;13.80;84.40;;;;;;5034164;28;20033;-79
2022/10/08 05:58:47;;;;;;;12.43;5.20;;;13.80;84.40;;;;;;5034046;28;20037;-79
2022/10/08 06:01:20;;;;;;;9.80;5.78;;;13.80;84.40;;;;;;5050744;28;20492;-79
2022/10/08 06:03:51;;;;;;;11.02;6.20;;;13.80;84.40;;;;;;5034649;28;20032;-79
2022/10/08 06:06:17;;;;;;;10.18;5.85;;;13.90;85.20;;;;;;5034868;28;20025;-79
2022/10/08 06:08:43;;;;;;;9.27;5.30;;;14.00;84.20;;;;;;5034501;28;20025;-79
2022/10/08 06:11:09;;;;;;;11.95;5.55;;;14.00;83.80;;;;;;5034263;28;20021;-79
2022/10/08 06:13:35;;;;;;;9.65;4.57;;;14.10;83.60;;;;;;5034962;28;20481;-79
2022/10/08 06:16:09;;;;;;;10.45;4.60;;;14.10;83.50;;;;;;5034325;28;20025;-79
2022/10/08 06:18:38;;;;;;;8.88;4.50;;;14.10;83.20;;;;;;5034459;28;20120;-78
2022/10/08 06:21:09;;;;;;;8.90;4.88;;;14.20;83.10;;;;;;5034324;28;20021;-81
2022/10/08 06:23:37;;;;;;;12.65;5.43;;;14.20;83.10;;;;;;5034870;28;20035;-81
2022/10/08 06:26:05;;;;;;;9.60;5.50;;;14.20;83.10;;;;;;5034636;28;20025;-79
2022/10/08 06:28:32;;;;;;;13.20;5.53;;;14.30;83.20;;;;;;5035211;28;20032;-78
2022/10/08 06:30:58;;;;;;;10.32;5.30;;;14.30;82.50;;;;;;5038070;28;20028;-78
2022/10/08 06:33:24;;;;;;;13.80;5.45;;;14.40;82.50;;;;;;5038219;28;20032;-78
2022/10/08 06:35:50;;;;;;;10.43;5.10;;;14.40;82.30;;;;;;5037693;28;20033;-78
2022/10/08 06:38:16;;;;;;;14.40;5.63;;;14.40;82.00;;;;;;5038028;28;20033;-79
2022/10/08 06:40:41;;;;;;;17.45;6.88;;;14.40;81.90;;;;;;5037940;28;20112;-79
2022/10/08 06:43:12;;;;;;;11.95;5.90;;;14.50;81.70;;;;;;5037121;28;20396;-78
2022/10/08 06:45:38;;;;;;;10.43;6.13;;;14.50;81.70;;;;;;5037680;28;20029;-78
2022/10/08 06:48:04;;;;;;;10.57;5.80;;;14.50;81.60;;;;;;5034309;28;20049;-79
2022/10/08 06:50:30;;;;;;;12.38;6.47;;;14.60;81.60;;;;;;5034488;28;20029;-79
2022/10/08 06:52:57;;;;;;;10.77;5.75;;;14.70;81.50;;;;;;5034712;28;20025;-80
2022/10/08 06:55:23;;;;;;;7.57;5.20;;;14.70;81.40;;;;;;5034270;28;20026;-79
2022/10/08 06:57:48;;;;;;;12.95;5.28;;;14.80;81.30;;;;;;5034571;28;20037;-79
2022/10/08 07:00:14;;;;;;;16.65;5.63;;;14.90;81.20;;;;;;5034103;28;20497;-79
2022/10/08 07:02:41;;;;;;;10.27;5.47;;;15.00;80.60;;;;;;5034309;28;20124;-81
2022/10/08 07:05:07;;;;;;;17.58;6.05;;;15.10;80.40;;;;;;5034339;28;20028;-81
2022/10/08 07:07:32;;;;;;;16.63;7.15;;;15.20;80.20;;;;;;5034207;28;20026;-82
2022/10/08 07:09:58;;;;;;;16.13;5.70;;;15.20;79.70;;;;;;5034143;28;20037;-79
2022/10/08 07:12:24;;;;;;;14.55;6.00;;;15.30;88.00;;;;;;5033757;28;20397;-78
2022/10/08 07:14:51;;;;;;;12.63;6.18;;;15.50;86.80;;;;;;5034378;28;20057;-77
2022/10/08 07:17:16;;;;;;;17.35;5.70;;;15.50;83.50;;;;;;5034274;28;20037;-78
2022/10/08 07:19:43;;;;;;;17.67;5.90;;;15.50;82.10;;;;;;5034207;28;20023;-76
2022/10/08 07:22:09;;;;;;;36.55;7.82;;;15.60;82.20;;;;;;5033787;28;20083;-78
2022/10/08 07:24:36;;;;;;;18.25;6.20;;;15.80;82.80;;;;;;5033821;28;20021;-77
2022/10/08 07:27:03;;;;;;;17.58;5.90;;;15.90;82.00;;;;;;5035372;28;20032;-78
2022/10/08 07:29:29;;;;;;;14.68;5.60;;;16.10;79.70;;;;;;5033639;28;20029;-78
2022/10/08 07:31:54;;;;;;;14.18;6.00;;;16.30;78.50;;;;;;5033139;28;20037;-77
2022/10/08 07:34:20;;;;;;;10.77;4.68;;;16.50;77.70;;;;;;5033639;28;20053;-77
2022/10/08 07:36:46;;;;;;;12.70;5.00;;;16.50;77.80;;;;;;5032834;28;20440;-78
2022/10/08 07:39:14;;;;;;;13.05;4.85;;;16.80;76.40;;;;;;5033609;28;20599;-77
2022/10/08 07:41:41;;;;;;;6.45;4.30;;;16.80;75.70;;;;;;5032573;28;20138;-77
2022/10/08 07:44:07;;;;;;;14.85;4.75;;;16.80;75.10;;;;;;5033466;28;20056;-78
2022/10/08 07:46:34;;;;;;;14.90;5.03;;;16.80;75.20;;;;;;5033213;28;20045;-78
2022/10/08 07:49:01;;;;;;;10.90;4.43;;;16.90;75.10;;;;;;5033457;28;20170;-78
2022/10/08 07:51:31;;;;;;;11.80;4.38;;;16.90;75.80;;;;;;5033155;28;20442;-78
2022/10/08 07:53:58;;;;;;;11.52;4.95;;;17.00;74.90;;;;;;5033389;28;20064;-77
2022/10/08 07:56:24;;;;;;;15.50;4.55;;;17.00;75.00;;;;;;5032984;28;20033;-76
2022/10/08 07:58:50;;;;;;;11.43;5.15;;;16.90;75.10;;;;;;5032504;28;20029;-79
2022/10/08 08:01:25;;;;;;;21.60;7.28;;;17.00;75.20;;;;;;5016508;28;20030;-80
2022/10/08 08:03:54;;;;;;;14.85;5.80;;;17.00;74.80;;;;;;5033830;28;20091;-79
2022/10/08 08:06:20;;;;;;;13.93;5.88;;;17.00;75.30;;;;;;5049560;28;20100;-79
2022/10/08 08:08:46;;;;;;;9.75;5.18;;;17.00;75.00;;;;;;5049536;28;20032;-80
2022/10/08 08:11:15;;;;;;;16.02;5.57;;;17.00;75.00;;;;;;5033214;28;20108;-78
2022/10/08 08:13:43;;;;;;;13.85;5.88;;;17.10;75.20;;;;;;5033057;28;20050;-77
2022/10/08 08:16:13;;;;;;;15.40;6.05;;;17.10;74.90;;;;;;5033361;28;20033;-77
2022/10/08 08:21:31;;;;;;;8.10;4.53;;;17.20;74.40;;;;;;5893548;22;20513;-79
2022/10/08 08:24:03;;;;;;;9.85;4.93;;;17.20;74.50;;;;;;5032632;28;20400;-80
2022/10/08 08:26:34;;;;;;;23.75;6.50;;;17.20;74.50;;;;;;5033920;28;20032;-79
2022/10/08 08:29:06;;;;;;;17.70;6.25;;;17.20;74.60;;;;;;5028676;28;20026;-79
2022/10/08 08:31:34;;;;;;;16.20;5.93;;;17.10;75.10;;;;;;5013160;28;20026;-77
2022/10/08 08:34:04;;;;;;;11.70;5.20;;;17.10;74.60;;;;;;5013493;28;20033;-77
2022/10/08 08:36:32;;;;;;;14.00;4.90;;;17.00;74.80;;;;;;5013039;28;20092;-77
2022/10/08 08:38:58;;;;;;;10.63;5.00;;;16.90;75.00;;;;;;5013432;28;20026;-77
2022/10/08 08:41:35;;;;;;;12.98;5.20;;;16.70;75.20;;;;;;5013874;28;20096;-77
2022/10/08 08:44:12;;;;;;;18.95;5.50;;;16.70;76.00;;;;;;5013657;28;20029;-77
2022/10/08 08:46:42;;;;;;;13.20;5.70;;;16.50;76.10;;;;;;5012302;28;20323;-78
2022/10/08 08:49:27;;;;;;;17.05;6.43;;;16.50;76.70;;;;;;5013257;28;20617;-77
2022/10/08 08:51:54;;;;;;;9.85;4.80;;;16.50;76.30;;;;;;5013738;28;20025;-77
2022/10/08 08:54:21;;;;;;;12.77;5.18;;;16.50;76.20;;;;;;5013758;28;20081;-77
2022/10/08 08:56:48;;;;;;;10.88;5.05;;;16.50;76.40;;;;;;5013610;28;20022;-77
2022/10/08 08:59:28;;;;;;;13.00;5.28;;;16.30;76.00;;;;;;5013748;28;20064;-77
2022/10/08 09:01:59;;;;;;;12.65;5.03;;;16.20;75.80;;;;;;5014044;28;20378;-77
2022/10/08 09:04:32;;;;;;;12.88;5.05;;;16.20;76.30;;;;;;5013261;28;20061;-77
2022/10/08 09:07:00;;;;;;;15.93;5.32;;;16.10;76.50;;;;;;5013284;28;20022;-77
2022/10/08 09:09:41;;;;;;;17.30;5.40;;;16.00;76.60;;;;;;5013332;28;20490;-77
2022/10/08 09:12:22;;;;;;;12.98;5.55;;;15.90;77.10;;;;;;5012738;28;20034;-76
2022/10/08 09:14:54;;;;;;;15.50;5.38;;;15.80;77.10;;;;;;5014538;28;20013;-77
2022/10/08 09:17:28;;;;;;;11.90;5.20;;;15.80;77.70;;;;;;5028776;28;20116;-78
2022/10/08 09:19:54;;;;;;;13.45;5.22;;;15.80;77.90;;;;;;5030947;28;20017;-77
2022/10/08 09:22:24;;;;;;;11.40;5.43;;;15.90;77.70;;;;;;5028890;28;20075;-77
2022/10/08 09:24:57;;;;;;;14.07;5.53;;;15.90;77.50;;;;;;5030099;28;20040;-77
2022/10/08 09:27:22;;;;;;;14.18;4.82;;;15.90;77.10;;;;;;5029398;28;20021;-77
2022/10/08 09:29:48;;;;;;;11.95;5.88;;;15.80;77.30;;;;;;5031017;28;20355;-76
2022/10/08 09:32:16;;;;;;;10.55;4.90;;;15.80;77.20;;;;;;5030864;28;20036;-76
2022/10/08 09:34:43;;;;;;;11.00;4.45;;;15.80;76.90;;;;;;5030815;28;20010;-77
2022/10/08 09:37:22;;;;;;;9.85;4.95;;;15.80;76.70;;;;;;5030343;28;20022;-77
2022/10/08 09:40:12;;;;;;;9.95;4.90;;;15.80;76.50;;;;;;5028441;28;20025;-77
2022/10/08 09:42:39;;;;;;;8.00;4.68;;;15.80;76.50;;;;;;5029668;28;20022;-77
2022/10/08 09:45:34;;;;;;;9.18;4.70;;;15.70;76.80;;;;;;5032385;28;20052;-77
2022/10/08 09:48:20;;;;;;;11.70;5.13;;;15.70;77.10;;;;;;5031680;28;20026;-77
2022/10/08 09:50:53;;;;;;;11.73;5.97;;;15.80;77.00;;;;;;5029804;28;20025;-76
2022/10/08 09:53:21;;;;;;;8.43;4.78;;;15.70;77.20;;;;;;5031539;28;20421;-77
2022/10/08 09:56:05;;;;;;;15.10;6.00;;;15.70;77.20;;;;;;5032036;28;20056;-77
2022/10/08 09:58:34;;;;;;;16.98;5.50;;;15.60;76.80;;;;;;5032225;28;20026;-77
2022/10/08 10:01:20;;;;;;;13.02;4.93;;;15.70;76.90;;;;;;5032209;28;20032;-77
2022/10/08 10:03:55;;;;;;;;;;;15.70;76.70;;;;;;5035378;28;20065;-77
2022/10/08 10:06:32;;;;;;;13.60;5.25;;;15.70;76.40;;;;;;5039161;28;20010;-77
2022/10/08 10:09:09;;;;;;;17.50;5.35;;;15.80;76.40;;;;;;5038396;28;20045;-76
2022/10/08 10:11:41;;;;;;;13.77;4.78;;;16.00;75.80;;;;;;5038802;28;20025;-76
2022/10/08 10:14:20;;;;;;;13.10;4.93;;;16.20;75.10;;;;;;5037142;28;20021;-78
2022/10/08 10:16:52;;;;;;;13.43;4.50;;;16.60;73.60;;;;;;5038401;28;20021;-77
2022/10/08 10:19:27;;;;;;;9.27;4.63;;;16.80;72.30;;;;;;5038795;28;20021;-78
2022/10/08 10:21:56;;;;;;;13.35;4.68;;;16.90;71.30;;;;;;5038820;28;20413;-77
2022/10/08 10:24:26;;;;;;;9.75;4.78;;;16.80;71.80;;;;;;5038819;28;20057;-78
2022/10/08 10:26:57;;;;;;;11.40;4.28;;;16.70;71.60;;;;;;5038863;28;20025;-77
2022/10/08 10:29:29;;;;;;;12.45;4.50;;;16.70;71.60;;;;;;5038216;28;20128;-78
2022/10/08 10:32:10;;;;;;;9.07;4.07;;;16.70;72.80;;;;;;5038379;28;20138;-78
2022/10/08 10:34:38;;;;;;;8.30;3.97;;;16.80;72.20;;;;;;5038917;28;20385;-76
2022/10/08 10:37:12;;;;;;;11.65;4.30;;;17.00;71.90;;;;;;5038396;28;20025;-76
2022/10/08 10:39:48;;;;;;;10.77;3.90;;;17.30;69.70;;;;;;5038556;28;20022;-76
2022/10/08 10:42:25;;;;;;;12.68;4.32;;;17.60;68.80;;;;;;5038517;28;20497;-76
2022/10/08 10:45:13;;;;;;;8.00;3.58;;;17.60;68.30;;;;;;5038639;28;20124;-76
2022/10/08 10:47:40;;;;;;;11.32;3.85;;;17.70;68.30;;;;;;5038331;28;20029;-76
2022/10/08 10:50:13;;;;;;;9.80;4.18;;;17.80;67.00;;;;;;5038373;28;20028;-76
2022/10/08 10:52:52;;;;;;;10.35;4.03;;;17.80;66.50;;;;;;5038359;28;20017;-75
2022/10/08 10:55:29;;;;;;;9.20;4.03;;;17.80;66.30;;;;;;5038364;28;20546;-75
2022/10/08 10:58:13;;;;;;;13.73;4.72;;;17.70;66.20;;;;;;5038587;28;20033;-75
2022/10/08 11:01:04;;;;;;;5.97;4.10;;;17.70;67.10;;;;;;5038614;28;20025;-76
2022/10/08 11:03:36;;;;;;;9.25;3.70;;;17.60;66.80;;;;;;5038334;28;20469;-76
2022/10/08 11:06:34;;;;;;;13.40;4.50;;;17.50;67.50;;;;;;5038340;28;20102;-76
2022/10/08 11:09:06;;;;;;;8.23;3.83;;;17.30;68.70;;;;;;5037637;28;20028;-76
2022/10/08 11:12:03;;;;;;;9.50;3.47;;;17.40;68.90;;;;;;5038255;28;20410;-76
2022/10/08 11:14:53;;;;;;;9.13;3.53;;;17.60;68.30;;;;;;5012730;28;20030;-76
2022/10/08 11:17:30;;;;;;;10.45;3.78;;;17.70;67.30;;;;;;5034930;28;20470;-76
2022/10/08 11:20:36;;;;;;;11.82;3.33;;;18.00;66.00;;;;;;5035229;28;20032;-76
2022/10/08 11:23:10;;;;;;;5.68;2.42;;;18.00;63.00;;;;;;5034578;28;20050;-76
2022/10/08 11:25:48;;;;;;;10.65;3.10;;;18.10;63.20;;;;;;5035173;28;20076;-76
2022/10/08 11:28:41;;;;;;;9.90;3.00;;;18.00;62.10;;;;;;5033118;28;20087;-75
2022/10/08 11:31:07;;;;;;;5.57;2.72;;;17.80;61.90;;;;;;5035052;28;20014;-76
2022/10/08 11:33:35;;;;;;;8.40;2.80;;;17.20;62.80;;;;;;5034966;28;20052;-75
2022/10/08 11:36:16;;;;;;;9.13;3.47;;;17.10;64.30;;;;;;5035199;28;20087;-75
2022/10/08 11:39:09;;;;;;;7.85;2.92;;;17.00;64.50;;;;;;5034810;28;20069;-77
2022/10/08 11:41:44;;;;;;;9.90;2.78;;;17.00;64.50;;;;;;5034770;28;20026;-76
2022/10/08 11:44:11;;;;;;;7.15;2.53;;;17.20;64.40;;;;;;5034899;28;20021;-76
2022/10/08 11:46:37;;;;;;;5.88;2.60;;;17.50;63.40;;;;;;5033527;28;20055;-76
2022/10/08 11:49:24;;;;;;;9.43;2.33;;;17.70;63.60;;;;;;5032759;28;20029;-77
2022/10/08 11:51:53;;;;;;;6.47;2.00;;;17.60;62.10;;;;;;4997052;28;20060;-75
2022/10/08 11:54:33;;;;;;;5.45;1.95;;;17.50;62.20;;;;;;5034545;28;20026;-77
2022/10/08 11:57:17;;;;;;;4.78;1.98;;;17.70;59.50;;;;;;5034892;28;20462;-76
2022/10/08 11:59:55;;;;;;;6.05;2.03;;;17.60;59.20;;;;;;5034645;28;20117;-78
2022/10/08 12:02:37;;;;;;;8.20;2.58;;;17.60;58.90;;;;;;5034533;28;20063;-76
2022/10/08 12:05:40;;;;;;;6.82;2.65;;;17.70;58.20;;;;;;5034788;28;20048;-77
2022/10/08 12:08:06;;;;;;;4.25;2.03;;;17.70;58.10;;;;;;4998299;28;20064;-76
2022/10/08 12:10:35;;;;;;;7.35;2.10;;;17.80;57.70;;;;;;5034009;28;20079;-76
2022/10/08 12:13:24;;;;;;;17.27;2.28;;;17.70;56.90;;;;;;5034743;28;20080;-76
2022/10/08 12:15:51;;;;;;;6.90;2.10;;;17.80;56.60;;;;;;5049126;28;20539;-75
2022/10/08 12:18:21;;;;;;;10.80;2.20;;;17.80;56.70;;;;;;5033906;28;20037;-77
2022/10/08 12:21:15;;;;;;;8.85;1.98;;;17.80;56.10;;;;;;5033562;28;20025;-78
2022/10/08 12:23:42;;;;;;;6.18;1.90;;;17.50;57.30;;;;;;5033678;28;20046;-78
2022/10/08 12:26:11;;;;;;;5.07;1.90;;;17.70;56.20;;;;;;5033377;28;20022;-77
2022/10/08 12:28:40;;;;;;;4.57;1.90;;;17.90;55.40;;;;;;5033807;28;20075;-78
2022/10/08 12:31:27;;;;;;;8.75;2.28;;;18.00;55.00;;;;;;5034062;28;20099;-78
2022/10/08 12:34:21;;;;;;;4.72;1.80;;;18.00;54.30;;;;;;5033712;28;20053;-78
2022/10/08 12:37:15;;;;;;;2.00;1.42;;;18.50;53.70;;;;;;5033712;28;20025;-78
2022/10/08 12:39:43;;;;;;;6.18;2.08;;;18.90;50.70;;;;;;5034206;28;20026;-78
2022/10/08 12:42:23;;;;;;;4.28;2.03;;;18.90;50.80;;;;;;5033804;28;20017;-78
2022/10/08 12:45:10;;;;;;;8.20;2.03;;;19.10;49.60;;;;;;5033846;28;20022;-78
2022/10/08 12:48:16;;;;;;;10.52;2.45;;;19.10;49.30;;;;;;5033649;28;20083;-78
2022/10/08 12:50:42;;;;;;;;;;;19.20;50.00;;;;;;4973214;28;20479;-78
2022/10/08 12:53:12;;;;;;;6.13;1.73;;;19.50;49.00;;;;;;5023680;28;19913;-79
2022/10/08 12:55:46;;;;;;;6.50;2.05;;;19.60;49.10;;;;;;5033480;28;20033;-80
2022/10/08 12:58:20;;;;;;;3.83;1.80;;;20.10;47.90;;;;;;5048903;28;20038;-80
2022/10/08 13:00:52;;;;;;;5.82;1.90;;;20.20;46.00;;;;;;5033701;28;20037;-80
2022/10/08 13:03:19;;;;;;;7.28;1.70;;;19.60;46.80;;;;;;5033552;28;20057;-80
2022/10/08 13:05:46;;;;;;;8.48;2.22;;;19.60;47.60;;;;;;5033602;28;20040;-81